Time;durP1;ratioP1;P1;durP2;ratioP2;P2;SDS_P1;SDS_P2;PMS_P1;PMS_P2;Temp;Humidity;BMP_temperature;BMP_pressure;BME280_temperature;BME280_humidity;BME280_pressure;Samples;Min_cycle;Max_cycle;Signal;HPM_P1;HPM_P2
2022/10/23 00:01:40;;;;;;;80.13;39.63;;;16.60;99.90;;;;;;6192112;23;20004;-92
2022/10/23 00:04:12;;;;;;;92.85;41.42;;;16.60;99.90;;;;;;6192271;23;20385;-92
2022/10/23 00:06:39;;;;;;;70.65;36.28;;;16.60;99.90;;;;;;6192057;23;20021;-92
2022/10/23 00:09:08;;;;;;;80.93;37.83;;;16.50;99.90;;;;;;6192589;23;20001;-94
2022/10/23 00:11:35;;;;;;;101.75;43.45;;;16.50;99.90;;;;;;6191633;23;20009;-92
2022/10/23 00:14:07;;;;;;;95.53;42.40;;;16.50;99.90;;;;;;6192333;23;20004;-93
2022/10/23 00:16:35;;;;;;;115.25;46.13;;;16.50;99.90;;;;;;6191635;23;20087;-92
2022/10/23 00:19:07;;;;;;;147.82;52.47;;;16.50;99.90;;;;;;6191872;23;20312;-92
2022/10/23 00:21:52;;;;;;;225.70;51.17;;;16.50;99.90;;;;;;6192023;23;20526;-92
2022/10/23 00:24:27;;;;;;;298.48;56.17;;;16.50;99.90;;;;;;6193061;23;20035;-92
2022/10/23 00:26:56;;;;;;;84.72;38.63;;;16.50;99.90;;;;;;6191569;23;20047;-90
2022/10/23 00:29:24;;;;;;;119.50;47.13;;;16.50;99.90;;;;;;6191670;23;20008;-92
2022/10/23 00:31:54;;;;;;;115.10;44.83;;;16.40;99.90;;;;;;6192322;23;20016;-92
2022/10/23 00:34:20;;;;;;;90.47;39.95;;;16.40;99.90;;;;;;6191549;23;20001;-92
2022/10/23 00:36:53;;;;;;;135.80;40.72;;;16.40;99.90;;;;;;6191523;23;20042;-91
2022/10/23 00:39:20;;;;;;;155.35;40.63;;;16.40;99.90;;;;;;6191573;23;20508;-92
2022/10/23 00:41:46;;;;;;;100.10;34.97;;;16.30;99.90;;;;;;6192169;23;20001;-92
2022/10/23 00:44:19;;;;;;;200.55;41.80;;;16.30;99.90;;;;;;6191363;23;20342;-94
2022/10/23 00:46:46;;;;;;;284.75;48.33;;;16.40;99.90;;;;;;6191509;23;20025;-94
2022/10/23 00:49:13;;;;;;;495.30;62.45;;;16.40;99.90;;;;;;6191412;23;20008;-92
2022/10/23 00:51:51;;;;;;;118.53;34.30;;;16.40;99.90;;;;;;6191319;23;20051;-93
2022/10/23 00:54:21;;;;;;;252.30;45.53;;;16.40;99.90;;;;;;6192032;23;20091;-94
2022/10/23 00:56:48;;;;;;;343.85;54.75;;;16.40;99.90;;;;;;6192862;23;20381;-92
2022/10/23 00:59:15;;;;;;;153.27;38.58;;;16.50;99.90;;;;;;6203297;23;20061;-92
2022/10/23 01:01:41;;;;;;;168.52;39.90;;;16.50;99.90;;;;;;6209265;23;20095;-92
2022/10/23 01:04:09;;;;;;;466.23;59.53;;;16.50;99.90;;;;;;6197946;23;20058;-94
2022/10/23 01:07:05;;;;;;;515.92;59.13;;;16.50;99.90;;;;;;6191777;23;20021;-92
2022/10/23 01:09:53;;;;;;;514.00;53.33;;;16.50;99.90;;;;;;6191551;23;20443;-91
2022/10/23 01:12:43;;;;;;;862.35;74.60;;;16.50;99.90;;;;;;6191296;23;20028;-92
2022/10/23 01:15:33;;;;;;;371.00;50.40;;;16.50;99.90;;;;;;6191511;23;20004;-94
2022/10/23 01:18:31;;;;;;;226.13;38.38;;;16.50;99.90;;;;;;6191678;23;20039;-93
2022/10/23 01:21:15;;;;;;;142.85;32.10;;;16.50;99.90;;;;;;6191371;23;20005;-93
2022/10/23 01:24:00;;;;;;;39.42;25.38;;;16.50;99.90;;;;;;6191697;23;20047;-93
2022/10/23 01:26:50;;;;;;;51.78;25.63;;;16.40;99.90;;;;;;6191132;23;20017;-92
2022/10/23 01:29:52;;;;;;;43.75;27.33;;;16.40;99.90;;;;;;6191189;23;20004;-93
2022/10/23 01:32:46;;;;;;;70.30;31.25;;;16.40;99.90;;;;;;6193608;23;20009;-94
2022/10/23 01:35:26;;;;;;;65.50;28.08;;;16.30;99.90;;;;;;6191346;23;20443;-92
2022/10/23 01:38:11;;;;;;;66.55;27.83;;;16.40;99.90;;;;;;6192626;23;20001;-93
2022/10/23 01:40:49;;;;;;;121.35;33.08;;;16.30;99.90;;;;;;6216228;23;20093;-93
2022/10/23 01:43:26;;;;;;;65.38;28.70;;;16.40;99.90;;;;;;6190977;23;20024;-91
2022/10/23 01:45:58;;;;;;;72.82;30.75;;;16.40;99.90;;;;;;6191062;23;20074;-92
2022/10/23 01:48:31;;;;;;;52.47;28.95;;;16.40;99.90;;;;;;6191774;23;20009;-91
2022/10/23 01:51:03;;;;;;;44.95;27.25;;;16.40;99.90;;;;;;6193044;23;20422;-93
2022/10/23 01:53:55;;;;;;;47.85;29.00;;;16.40;99.90;;;;;;6192749;23;20024;-92
2022/10/23 01:56:30;;;;;;;42.53;27.67;;;16.40;99.90;;;;;;6191155;23;20011;-92
2022/10/23 01:59:00;;;;;;;38.00;25.17;;;16.40;99.90;;;;;;6188976;23;20013;-94
2022/10/23 02:01:31;;;;;;;;;;;16.50;99.90;;;;;;6192593;23;20032;-91
2022/10/23 02:04:03;;;;;;;41.50;26.70;;;16.50;99.90;;;;;;6191143;23;19970;-92
2022/10/23 02:06:37;;;;;;;46.70;29.25;;;16.60;99.90;;;;;;6191619;23;20450;-92
2022/10/23 02:09:12;;;;;;;53.33;30.33;;;16.60;99.90;;;;;;6191311;23;20430;-92
2022/10/23 02:11:52;;;;;;;45.38;29.88;;;16.60;99.90;;;;;;6192227;23;20008;-93
2022/10/23 02:14:32;;;;;;;50.40;31.08;;;16.60;99.90;;;;;;6190757;23;20008;-92
2022/10/23 02:17:18;;;;;;;67.95;32.75;;;16.70;99.90;;;;;;6190549;23;20054;-93
2022/10/23 02:20:02;;;;;;;74.30;34.42;;;16.70;99.90;;;;;;6190969;23;20016;-91
2022/10/23 02:22:35;;;;;;;49.65;29.48;;;16.70;99.90;;;;;;6191372;23;20013;-92
2022/10/23 02:25:14;;;;;;;54.45;27.73;;;16.70;99.90;;;;;;6191432;23;20019;-93
2022/10/23 02:27:56;;;;;;;79.78;36.08;;;16.70;99.90;;;;;;6193312;23;20048;-92
2022/10/23 02:30:31;;;;;;;83.70;32.00;;;16.70;99.90;;;;;;6196432;23;20458;-92
2022/10/23 02:33:09;;;;;;;87.90;30.75;;;16.90;99.90;;;;;;6196392;23;20062;-93
2022/10/23 02:35:36;;;;;;;95.82;33.42;;;17.00;99.90;;;;;;6191131;23;20347;-91
2022/10/23 02:38:36;;;;;;;75.97;33.45;;;17.10;99.90;;;;;;6194650;23;20008;-92
2022/10/23 02:41:34;;;;;;;87.05;33.60;;;17.10;99.90;;;;;;6193162;23;20005;-91
2022/10/23 02:44:17;;;;;;;71.78;35.25;;;17.10;99.90;;;;;;6191211;23;20008;-94
2022/10/23 02:47:03;;;;;;;160.63;39.15;;;17.10;99.90;;;;;;6191003;23;20401;-93
2022/10/23 02:49:53;;;;;;;119.97;39.75;;;17.10;99.90;;;;;;6190914;23;20005;-93
2022/10/23 02:52:41;;;;;;;475.65;66.30;;;17.10;99.90;;;;;;6192806;23;20013;-91
2022/10/23 02:55:14;;;;;;;188.45;50.55;;;17.10;99.90;;;;;;6167701;23;20027;-92
2022/10/23 02:57:56;;;;;;;75.50;34.30;;;17.10;99.90;;;;;;6168987;23;20008;-91
2022/10/23 03:00:24;;;;;;;221.70;44.58;;;17.10;99.90;;;;;;6167766;23;20013;-92
2022/10/23 03:03:13;;;;;;;141.93;38.78;;;17.10;99.90;;;;;;6168197;23;20008;-92
2022/10/23 03:05:43;;;;;;;146.23;36.60;;;17.10;99.90;;;;;;6171071;23;20012;-92
2022/10/23 03:08:12;;;;;;;116.05;34.55;;;17.00;99.90;;;;;;6175462;23;20008;-93
2022/10/23 03:10:42;;;;;;;95.70;32.58;;;17.00;99.90;;;;;;6169128;23;20335;-93
2022/10/23 03:13:10;;;;;;;235.07;48.13;;;17.00;99.90;;;;;;6167810;23;20079;-92
2022/10/23 03:15:44;;;;;;;112.65;34.33;;;17.00;99.90;;;;;;6170064;23;20009;-92
2022/10/23 03:18:21;;;;;;;133.50;33.10;;;17.00;99.90;;;;;;6168247;23;20020;-92
2022/10/23 03:20:50;;;;;;;315.42;43.38;;;16.90;99.90;;;;;;6168041;23;20012;-92
2022/10/23 03:23:21;;;;;;;350.83;49.00;;;16.90;99.90;;;;;;6168116;23;20005;-93
2022/10/23 03:25:48;;;;;;;219.27;46.35;;;16.90;99.90;;;;;;6167736;23;20017;-93
2022/10/23 03:28:32;;;;;;;388.30;63.47;;;16.90;99.90;;;;;;6170566;23;20177;-94
2022/10/23 03:31:03;;;;;;;399.60;55.42;;;16.90;99.90;;;;;;6167903;23;20435;-93
2022/10/23 03:33:31;;;;;;;253.80;47.22;;;16.90;99.90;;;;;;6168277;23;20300;-92
2022/10/23 03:36:06;;;;;;;388.25;57.85;;;16.90;99.90;;;;;;6169241;23;20008;-93
2022/10/23 03:38:43;;;;;;;483.77;64.10;;;16.90;99.90;;;;;;6167464;23;20008;-92
2022/10/23 03:41:28;;;;;;;206.23;44.42;;;17.00;99.90;;;;;;6168395;23;20407;-93
2022/10/23 03:43:58;;;;;;;117.65;37.58;;;17.00;99.90;;;;;;6167755;23;20005;-93
2022/10/23 03:46:25;;;;;;;920.97;93.70;;;17.10;99.90;;;;;;6167034;23;20018;-93
2022/10/23 03:48:57;;;;;;;142.75;42.25;;;17.10;99.90;;;;;;6167470;23;20058;-92
2022/10/23 03:51:24;;;;;;;123.45;32.25;;;17.10;99.90;;;;;;6167026;23;20094;-93
2022/10/23 03:53:54;;;;;;;135.77;39.30;;;17.10;99.90;;;;;;6177341;23;20454;-92
2022/10/23 03:56:40;;;;;;;181.80;35.88;;;17.20;99.90;;;;;;6194993;23;20009;-93
2022/10/23 04:00:05;;;;;;;251.25;39.47;;;17.10;99.90;;;;;;6217786;23;20063;-92
2022/10/23 04:02:46;;;;;;;477.02;62.20;;;17.10;99.90;;;;;;6217436;23;20454;-92
2022/10/23 04:05:13;;;;;;;84.78;34.45;;;17.10;99.90;;;;;;6192161;23;20016;-93
2022/10/23 04:08:11;;;;;;;160.52;36.78;;;17.20;99.90;;;;;;6194671;23;20008;-94
2022/10/23 04:11:00;;;;;;;386.38;59.63;;;17.20;99.90;;;;;;6192473;23;20005;-94
2022/10/23 04:13:42;;;;;;;248.30;51.83;;;17.20;99.90;;;;;;6193511;23;20016;-93
2022/10/23 04:16:09;;;;;;;77.10;35.78;;;17.20;99.90;;;;;;6191909;23;20040;-92
2022/10/23 04:18:41;;;;;;;354.33;54.53;;;17.10;99.90;;;;;;6192153;23;20008;-94
2022/10/23 04:21:12;;;;;;;69.85;32.25;;;17.10;99.90;;;;;;6192072;23;20005;-93
2022/10/23 04:23:43;;;;;;;140.88;36.53;;;17.10;99.90;;;;;;6191779;23;20016;-92
2022/10/23 04:26:24;;;;;;;45.28;31.23;;;17.00;99.90;;;;;;6192645;23;20360;-92
2022/10/23 04:28:51;;;;;;;50.22;28.67;;;17.00;99.90;;;;;;6191545;23;20009;-92
2022/10/23 04:31:18;;;;;;;164.02;37.65;;;17.10;99.90;;;;;;6191490;23;20009;-93
2022/10/23 04:33:45;;;;;;;51.58;31.60;;;17.10;99.90;;;;;;6192444;23;20008;-92
2022/10/23 04:36:26;;;;;;;198.35;45.03;;;17.10;99.90;;;;;;6195560;23;20009;-92
2022/10/23 04:38:53;;;;;;;123.45;40.30;;;17.10;99.90;;;;;;6192662;23;20016;-93
2022/10/23 04:41:20;;;;;;;137.07;43.42;;;17.10;99.90;;;;;;6192044;23;20036;-93
2022/10/23 04:43:47;;;;;;;41.63;30.98;;;17.10;99.90;;;;;;6191626;23;20005;-92
2022/10/23 04:46:16;;;;;;;122.70;34.63;;;17.20;99.90;;;;;;6191629;23;20151;-91
2022/10/23 04:48:46;;;;;;;132.38;37.83;;;17.20;99.90;;;;;;6192079;23;20000;-90
2022/10/23 04:51:27;;;;;;;94.95;38.42;;;17.10;99.90;;;;;;6193798;23;20024;-93
2022/10/23 04:53:59;;;;;;;165.70;43.50;;;17.20;99.90;;;;;;6193082;23;20013;-91
2022/10/23 04:56:46;;;;;;;61.70;33.90;;;17.10;99.90;;;;;;6195812;23;20013;-93
2022/10/23 04:59:19;;;;;;;149.18;47.10;;;17.20;99.90;;;;;;6192671;23;20008;-92
2022/10/23 05:01:49;;;;;;;87.65;37.83;;;17.20;99.90;;;;;;6193688;23;20039;-93
2022/10/23 05:04:20;;;;;;;86.25;36.88;;;17.20;99.90;;;;;;6192152;23;20095;-92
2022/10/23 05:07:08;;;;;;;92.82;38.30;;;17.20;99.90;;;;;;6217393;23;20027;-92
2022/10/23 05:09:45;;;;;;;53.35;32.78;;;17.20;99.90;;;;;;6194550;23;20012;-93
2022/10/23 05:12:32;;;;;;;161.20;41.08;;;17.20;99.90;;;;;;6186687;23;20083;-93
2022/10/23 05:15:00;;;;;;;187.45;45.92;;;17.20;99.90;;;;;;6192049;23;20005;-92
2022/10/23 05:17:35;;;;;;;435.73;64.35;;;17.30;99.90;;;;;;6191360;23;20457;-92
2022/10/23 05:20:07;;;;;;;200.75;43.40;;;17.20;99.90;;;;;;6191230;23;20012;-92
2022/10/23 05:22:39;;;;;;;77.88;34.95;;;17.30;99.90;;;;;;6190979;23;20009;-92
2022/10/23 05:25:13;;;;;;;438.10;65.30;;;17.30;99.90;;;;;;6191842;23;20328;-93
2022/10/23 05:27:45;;;;;;;163.27;38.28;;;17.40;99.90;;;;;;6193164;23;20008;-92
2022/10/23 05:30:33;;;;;;;98.03;34.15;;;17.40;99.90;;;;;;6193481;23;20005;-93
2022/10/23 05:35:54;;;;;;;180.65;38.78;;;17.50;99.90;;;;;;6245511;23;20107;-93
2022/10/23 05:38:35;;;;;;;100.60;31.90;;;17.60;99.90;;;;;;6192368;23;20012;-94
2022/10/23 05:43:45;;;;;;;135.75;35.75;;;17.80;99.90;;;;;;6253506;23;20232;-86
2022/10/23 05:46:32;;;;;;;99.28;33.88;;;17.90;99.90;;;;;;6221843;23;20496;-91
2022/10/23 05:49:25;;;;;;;303.50;51.40;;;17.90;99.90;;;;;;6184352;23;20066;-91
2022/10/23 05:52:13;;;;;;;101.43;34.33;;;18.10;99.90;;;;;;6227955;23;20461;-91
2022/10/23 05:54:55;;;;;;;114.30;30.42;;;18.20;99.90;;;;;;6199787;23;20015;-89
2022/10/23 05:57:39;;;;;;;189.50;35.25;;;18.10;99.90;;;;;;6201964;23;20012;-89
2022/10/23 06:00:10;;;;;;;46.05;27.75;;;18.20;99.90;;;;;;6200409;23;20434;-94
2022/10/23 06:05:34;;;;;;;68.72;27.75;;;18.20;99.90;;;;;;6267305;22;20020;-91
2022/10/23 06:08:18;;;;;;;58.40;25.33;;;18.10;99.90;;;;;;6210150;23;20015;-92
2022/10/23 06:11:00;;;;;;;136.90;35.45;;;18.00;99.90;;;;;;6198965;23;20437;-93
2022/10/23 06:13:31;;;;;;;60.47;29.45;;;17.90;99.90;;;;;;6195420;23;20311;-92
2022/10/23 06:15:57;;;;;;;45.83;26.83;;;17.80;99.90;;;;;;6197023;23;20028;-92
2022/10/23 06:18:25;;;;;;;58.95;29.48;;;17.80;99.90;;;;;;6197285;23;20007;-93
2022/10/23 06:21:01;;;;;;;91.50;30.05;;;17.80;99.90;;;;;;6197944;23;20008;-91
2022/10/23 06:23:33;;;;;;;60.00;26.63;;;17.90;99.90;;;;;;6196379;23;20012;-93
2022/10/23 06:26:11;;;;;;;37.80;25.40;;;17.90;99.90;;;;;;6223201;23;20020;-90
2022/10/23 06:28:53;;;;;;;;;;;17.90;99.90;;;;;;6199378;23;20011;-93
2022/10/23 06:31:25;;;;;;;49.78;23.55;;;18.10;99.90;;;;;;6195528;23;19919;-94
2022/10/23 06:33:56;;;;;;;64.93;24.52;;;18.10;99.90;;;;;;6196243;23;20091;-92
2022/10/23 06:36:24;;;;;;;248.77;36.75;;;18.30;99.90;;;;;;6195624;23;20015;-93
2022/10/23 06:38:55;;;;;;;259.00;38.70;;;18.40;99.90;;;;;;6196635;23;20418;-93
2022/10/23 06:41:31;;;;;;;76.53;22.77;;;18.50;99.90;;;;;;6197479;23;20092;-91
2022/10/23 06:43:58;;;;;;;93.82;21.80;;;18.60;99.90;;;;;;6195527;23;20327;-92
2022/10/23 06:46:38;;;;;;;114.63;25.30;;;18.60;99.90;;;;;;6198592;23;20487;-93
2022/10/23 06:49:23;;;;;;;48.22;20.33;;;18.70;99.90;;;;;;6225501;23;20373;-92
2022/10/23 06:51:50;;;;;;;42.70;17.55;;;18.90;99.90;;;;;;6195672;23;20012;-92
2022/10/23 06:54:21;;;;;;;229.38;37.33;;;18.80;99.90;;;;;;6196669;23;20000;-94
2022/10/23 06:56:50;;;;;;;50.92;16.15;;;18.80;99.90;;;;;;6221692;23;20087;-93
2022/10/23 06:59:21;;;;;;;35.40;17.27;;;19.00;99.90;;;;;;6196497;23;20011;-92
2022/10/23 07:01:51;;;;;;;92.93;19.98;;;19.20;99.90;;;;;;6221992;23;20043;-91
2022/10/23 07:04:18;;;;;;;67.00;19.48;;;19.30;99.90;;;;;;6196420;23;20067;-91
2022/10/23 07:06:45;;;;;;;168.68;24.02;;;19.40;99.90;;;;;;6195743;23;20016;-92
2022/10/23 07:09:12;;;;;;;28.70;16.00;;;19.60;99.90;;;;;;6221951;23;20346;-92
2022/10/23 07:11:59;;;;;;;36.08;15.48;;;19.80;99.90;;;;;;6179224;23;20012;-93
2022/10/23 07:14:34;;;;;;;45.35;16.75;;;19.80;99.90;;;;;;6197405;23;20505;-92
2022/10/23 07:17:03;;;;;;;75.32;22.55;;;19.90;99.90;;;;;;6197663;23;20004;-94
2022/10/23 07:19:29;;;;;;;61.47;18.77;;;20.00;99.90;;;;;;6198198;23;20004;-92
2022/10/23 07:22:14;;;;;;;46.67;14.65;;;20.10;99.90;;;;;;6199115;23;20004;-92
2022/10/23 07:24:51;;;;;;;39.85;14.10;;;20.00;99.90;;;;;;6222985;23;20030;-92
2022/10/23 07:27:24;;;;;;;46.00;16.67;;;20.10;99.90;;;;;;6202769;23;20012;-91
2022/10/23 07:29:56;;;;;;;41.20;16.65;;;20.00;99.90;;;;;;6201738;23;20432;-94
2022/10/23 07:32:26;;;;;;;90.70;26.33;;;20.10;99.90;;;;;;6197303;23;20337;-93
2022/10/23 07:35:12;;;;;;;29.58;16.77;;;20.30;99.90;;;;;;6225614;23;20019;-93
2022/10/23 07:37:49;;;;;;;56.83;17.95;;;20.50;99.90;;;;;;6202852;23;20031;-93
2022/10/23 07:40:17;;;;;;;70.28;23.63;;;20.60;99.90;;;;;;6199817;23;20008;-92
2022/10/23 07:42:44;;;;;;;46.33;22.98;;;20.70;99.90;;;;;;6198245;23;20025;-91
2022/10/23 07:45:11;;;;;;;121.88;30.30;;;20.90;99.90;;;;;;6198326;23;20007;-92
2022/10/23 07:47:51;;;;;;;35.08;17.25;;;20.90;99.90;;;;;;6224211;23;20054;-91
2022/10/23 07:50:19;;;;;;;23.83;16.40;;;21.00;99.90;;;;;;6198743;23;20008;-92
2022/10/23 07:52:50;;;;;;;25.98;17.73;;;21.10;99.90;;;;;;6196258;23;20036;-91
2022/10/23 07:55:17;;;;;;;33.55;19.10;;;21.20;99.90;;;;;;6197514;23;20384;-91
2022/10/23 07:57:56;;;;;;;24.45;19.20;;;21.20;99.90;;;;;;6200174;23;20027;-92
2022/10/23 08:00:32;;;;;;;29.08;21.45;;;21.20;99.90;;;;;;6199343;23;20008;-94
2022/10/23 08:03:11;;;;;;;41.22;23.63;;;21.30;99.90;;;;;;6199191;22;20007;-92
2022/10/23 08:05:38;;;;;;;24.67;18.20;;;21.60;99.90;;;;;;6196867;23;20028;-92
2022/10/23 08:08:05;;;;;;;24.38;19.38;;;21.60;99.90;;;;;;6197558;23;20438;-90
2022/10/23 08:10:32;;;;;;;24.77;20.75;;;21.70;99.90;;;;;;6197590;23;20004;-90
2022/10/23 08:18:23;;;;;;;25.55;20.25;;;21.80;99.90;;;;;;6223804;22;19922;-92
2022/10/23 08:20:51;;;;;;;24.33;18.98;;;21.90;99.90;;;;;;6221873;23;20004;-94
2022/10/23 08:23:19;;;;;;;26.42;20.83;;;22.00;99.90;;;;;;6196772;23;20015;-93
2022/10/23 08:25:46;;;;;;;26.30;21.27;;;22.30;99.90;;;;;;6221687;23;20425;-93
2022/10/23 08:28:15;;;;;;;34.92;23.52;;;22.50;99.90;;;;;;6191728;23;20005;-91
2022/10/23 08:30:55;;;;;;;23.10;20.50;;;22.70;99.90;;;;;;6192534;23;20438;-93
2022/10/23 08:33:23;;;;;;;27.63;22.65;;;22.70;99.90;;;;;;6193958;23;20009;-93
2022/10/23 08:35:50;;;;;;;30.30;23.23;;;22.80;99.90;;;;;;6194486;23;20012;-92
2022/10/23 08:38:25;;;;;;;27.13;20.63;;;23.10;99.90;;;;;;6195619;23;20001;-93
2022/10/23 08:40:52;;;;;;;24.33;21.80;;;23.10;99.90;;;;;;6194820;23;20036;-94
2022/10/23 08:44:02;;;;;;;24.63;22.27;;;23.10;99.90;;;;;;6148079;23;20088;-94
2022/10/23 08:46:41;;;;;;;22.17;19.90;;;23.20;99.90;;;;;;6136767;23;20022;-93
2022/10/23 08:49:42;;;;;;;22.83;20.63;;;23.20;99.90;;;;;;6142193;23;20041;-93
2022/10/23 08:52:51;;;;;;;21.55;19.35;;;23.20;99.90;;;;;;6116438;23;20489;-92
2022/10/23 08:55:34;;;;;;;23.05;20.67;;;23.20;99.90;;;;;;6055123;23;20034;-92
2022/10/23 08:58:09;;;;;;;23.02;20.67;;;23.00;99.90;;;;;;6008053;23;20011;-92
2022/10/23 09:00:36;;;;;;;22.20;20.30;;;22.90;99.90;;;;;;6027863;23;20011;-88
2022/10/23 09:03:04;;;;;;;25.00;22.42;;;22.70;99.90;;;;;;6028916;23;20007;-92
2022/10/23 09:06:07;;;;;;;29.90;22.15;;;22.80;99.90;;;;;;6019218;23;20026;-93
2022/10/23 09:08:50;;;;;;;23.02;20.65;;;23.10;99.90;;;;;;6018013;23;20015;-92
2022/10/23 09:11:40;;;;;;;24.98;21.50;;;23.30;99.90;;;;;;5993746;23;20051;-91
2022/10/23 09:14:47;;;;;;;23.55;21.13;;;23.50;99.90;;;;;;6016951;23;20018;-91
2022/10/23 09:17:30;;;;;;;24.10;21.63;;;23.50;99.90;;;;;;5990634;23;20102;-92
2022/10/23 09:20:18;;;;;;;23.02;20.77;;;23.50;99.90;;;;;;6038606;23;20433;-91
2022/10/23 09:22:48;;;;;;;23.05;20.73;;;23.30;99.90;;;;;;6049012;23;20460;-91
2022/10/23 09:25:25;;;;;;;25.08;21.85;;;23.30;99.90;;;;;;6072501;23;20006;-90
2022/10/23 09:27:56;;;;;;;27.38;23.95;;;23.10;99.90;;;;;;6073253;23;20560;-91
2022/10/23 09:30:39;;;;;;;24.63;22.08;;;23.30;99.90;;;;;;6073698;23;20013;-91
2022/10/23 09:33:25;;;;;;;24.35;21.58;;;23.70;99.90;;;;;;6191012;23;20024;-91
2022/10/23 09:35:57;;;;;;;24.65;22.02;;;24.00;99.90;;;;;;6216068;23;20012;-91
2022/10/23 09:38:35;;;;;;;26.17;21.73;;;24.10;99.90;;;;;;6215611;23;20005;-91
2022/10/23 09:41:10;;;;;;;23.15;21.27;;;24.00;99.90;;;;;;6190723;23;20386;-92
2022/10/23 09:43:36;;;;;;;23.45;21.25;;;24.10;99.90;;;;;;6190491;23;20009;-92
2022/10/23 09:46:06;;;;;;;24.52;22.15;;;24.10;99.90;;;;;;6191256;23;20017;-91
2022/10/23 09:48:35;;;;;;;24.40;21.95;;;24.10;99.90;;;;;;6190713;23;20029;-92
2022/10/23 09:51:18;;;;;;;23.63;21.52;;;24.30;99.90;;;;;;6190996;23;20442;-92
2022/10/23 09:53:54;;;;;;;23.10;20.95;;;24.20;99.90;;;;;;6215744;23;20039;-92
2022/10/23 09:56:33;;;;;;;23.77;21.45;;;23.90;99.90;;;;;;6215727;23;20009;-90
2022/10/23 09:59:12;;;;;;;23.75;21.55;;;23.90;99.90;;;;;;6215457;23;20011;-93
2022/10/23 10:02:14;;;;;;;22.85;20.75;;;24.20;99.90;;;;;;6190808;23;20083;-91
2022/10/23 10:04:54;;;;;;;24.33;21.92;;;24.30;99.90;;;;;;6212965;23;20435;-92
2022/10/23 10:07:25;;;;;;;23.70;21.60;;;24.10;99.90;;;;;;6190670;23;20020;-94
2022/10/23 10:09:56;;;;;;;23.60;21.40;;;24.00;99.90;;;;;;6191047;23;20013;-92
2022/10/23 10:12:31;;;;;;;23.02;21.23;;;24.30;99.90;;;;;;6215677;23;20063;-92
2022/10/23 10:15:27;;;;;;;22.67;20.67;;;24.10;99.90;;;;;;6215805;23;20418;-91
2022/10/23 10:18:18;;;;;;;22.92;20.83;;;24.10;99.90;;;;;;6210481;23;20067;-91
2022/10/23 10:21:13;;;;;;;23.13;20.83;;;24.40;99.90;;;;;;6210572;23;20061;-93
2022/10/23 10:23:45;;;;;;;23.35;21.00;;;24.50;99.90;;;;;;6210501;23;20009;-93
2022/10/23 10:26:42;;;;;;;23.42;21.25;;;24.50;99.90;;;;;;6210336;23;20017;-91
2022/10/23 10:29:28;;;;;;;23.52;21.17;;;24.20;99.90;;;;;;6170228;23;20338;-92
2022/10/23 10:32:33;;;;;;;24.35;22.17;;;24.00;99.90;;;;;;6210242;23;20016;-91
2022/10/23 10:35:23;;;;;;;30.30;27.07;;;24.10;99.90;;;;;;6160808;23;20005;-93
2022/10/23 10:38:08;;;;;;;24.63;21.42;;;24.40;99.90;;;;;;6185189;23;20024;-92
2022/10/23 10:40:50;;;;;;;23.67;21.67;;;24.30;99.90;;;;;;6210394;23;20083;-92
2022/10/23 10:43:29;;;;;;;23.10;21.15;;;24.20;99.90;;;;;;6185379;23;20009;-92
2022/10/23 10:46:19;;;;;;;24.30;22.10;;;24.20;99.90;;;;;;6210185;23;20040;-92
2022/10/23 10:48:52;;;;;;;24.25;21.95;;;24.50;99.90;;;;;;6185679;23;20461;-92
2022/10/23 10:52:07;;;;;;;21.95;20.23;;;24.70;99.90;;;;;;6209239;23;20020;-92
2022/10/23 10:54:53;;;;;;;24.80;22.63;;;24.40;99.90;;;;;;6141746;23;20012;-93
2022/10/23 10:57:41;;;;;;;23.70;21.60;;;24.80;99.90;;;;;;6210405;23;20346;-92
2022/10/23 11:00:21;;;;;;;24.70;22.48;;;24.70;99.90;;;;;;6185502;23;20524;-93
2022/10/23 11:03:01;;;;;;;25.65;23.40;;;24.70;99.90;;;;;;6185338;23;20009;-93
2022/10/23 11:05:42;;;;;;;25.35;22.88;;;24.80;99.90;;;;;;6185415;23;20025;-93
2022/10/23 11:08:41;;;;;;;24.90;22.48;;;24.60;99.90;;;;;;6185453;23;20008;-92
2022/10/23 11:11:17;;;;;;;25.35;23.20;;;24.40;99.90;;;;;;6157346;23;20009;-92
2022/10/23 11:13:45;;;;;;;25.15;23.05;;;24.50;99.90;;;;;;6187772;23;20009;-91
2022/10/23 11:16:30;;;;;;;25.55;23.23;;;24.70;99.90;;;;;;6189371;23;20028;-93
2022/10/23 11:19:24;;;;;;;25.70;23.45;;;24.90;99.90;;;;;;6186200;23;20344;-92
2022/10/23 11:21:54;;;;;;;24.98;22.85;;;24.70;99.90;;;;;;6231018;23;20009;-93
2022/10/23 11:24:58;;;;;;;25.70;23.52;;;24.60;99.90;;;;;;6200377;23;20015;-91
2022/10/23 11:27:57;;;;;;;25.20;22.67;;;24.70;99.90;;;;;;6223165;23;20082;-91
2022/10/23 11:30:43;;;;;;;23.40;21.27;;;25.10;99.90;;;;;;6093391;23;20008;-92
2022/10/23 11:33:42;;;;;;;23.10;20.73;;;25.00;99.90;;;;;;6216958;23;20032;-94
2022/10/23 11:36:17;;;;;;;23.17;20.83;;;24.90;99.90;;;;;;6078510;23;20006;-91
2022/10/23 11:38:57;;;;;;;22.67;20.52;;;24.80;99.90;;;;;;6126454;23;20014;-93
2022/10/23 11:41:32;;;;;;;22.40;20.27;;;25.10;99.90;;;;;;6102641;23;20013;-93
2022/10/23 11:44:03;;;;;;;22.60;20.35;;;25.00;99.90;;;;;;6102760;23;20009;-93
2022/10/23 11:46:34;;;;;;;23.00;20.70;;;25.10;99.90;;;;;;6103231;23;20105;-93
2022/10/23 11:49:04;;;;;;;23.27;20.95;;;25.20;99.90;;;;;;6127009;23;20106;-92
2022/10/23 11:51:37;;;;;;;21.73;20.02;;;25.30;99.90;;;;;;6103596;23;20014;-93
2022/10/23 11:54:23;;;;;;;21.88;19.95;;;25.10;99.90;;;;;;6102581;23;20476;-93
2022/10/23 11:56:55;;;;;;;21.70;19.88;;;25.10;99.90;;;;;;6103896;23;20014;-94
2022/10/23 12:02:36;;;;;;;22.10;20.10;;;25.20;99.90;;;;;;6249650;22;20031;-93
2022/10/23 12:06:18;;;;;;;21.83;19.73;;;25.00;99.90;;;;;;6250565;22;20015;-93
2022/10/23 12:12:11;;;;;;;21.85;19.90;;;24.70;99.90;;;;;;6175424;23;19920;-94
2022/10/23 12:29:51;;;;;;;;;;;;;;;;;;;;;
2022/10/23 12:32:47;;;;;;;21.15;19.25;;;24.90;99.90;;;;;;6252406;23;20026;-94
2022/10/23 12:35:59;;;;;;;21.95;19.92;;;24.90;99.90;;;;;;6202543;23;20008;-93
2022/10/23 12:39:24;;;;;;;;;;;;;;;;;;;;;
2022/10/23 13:05:35;;;;;;;22.40;20.20;;;24.70;99.90;;;;;;6073486;23;20097;-94
2022/10/23 13:09:01;;;;;;;20.92;19.23;;;24.70;99.90;;;;;;6020254;23;20007;-95
2022/10/23 13:20:57;;;;;;;21.88;19.95;;;24.80;99.90;;;;;;6280257;22;20014;-93
2022/10/23 13:24:19;;;;;;;21.00;19.23;;;24.70;99.90;;;;;;6231243;22;20096;-94
2022/10/23 13:27:42;;;;;;;;;;;;;;;;;;;;;
2022/10/23 13:39:49;;;;;;;22.02;20.13;;;24.40;99.90;;;;;;6098032;23;20089;-93
2022/10/23 13:50:48;;;;;;;;;;;;;;;;;;;;;
2022/10/23 13:54:43;;;;;;;;;;;;;;;;;;;;;
2022/10/23 13:58:14;;;;;;;;;;;;;;;;;;;;;
2022/10/23 14:01:41;;;;;;;21.35;19.50;;;24.40;99.90;;;;;;5957699;24;20015;-93
2022/10/23 14:09:05;;;;;;;21.15;19.25;;;24.30;99.90;;;;;;5848123;24;20093;-94
2022/10/23 14:19:59;;;;;;;21.27;19.20;;;24.10;99.90;;;;;;5746440;24;20058;-94
2022/10/23 14:22:31;;;;;;;20.95;18.83;;;24.20;99.90;;;;;;5791290;22;20013;-94
2022/10/23 14:28:23;;;;;;;20.02;18.35;;;24.10;99.90;;;;;;6264405;22;20024;-93
2022/10/23 14:30:49;;;;;;;18.55;17.02;;;24.00;99.90;;;;;;6196190;23;20030;-92
2022/10/23 14:33:16;;;;;;;19.88;17.75;;;23.90;99.90;;;;;;6196448;23;20010;-94
2022/10/23 14:35:42;;;;;;;20.10;18.02;;;23.80;99.90;;;;;;6220536;23;20095;-93
2022/10/23 14:38:08;;;;;;;20.70;18.92;;;23.80;99.90;;;;;;6195639;23;20146;-91
2022/10/23 14:40:38;;;;;;;19.77;18.10;;;23.70;99.90;;;;;;6195517;23;20026;-93
2022/10/23 14:43:05;;;;;;;20.17;18.20;;;23.70;99.90;;;;;;6195302;23;20142;-92
2022/10/23 14:45:32;;;;;;;20.48;18.65;;;23.60;99.90;;;;;;6195506;23;20043;-93
2022/10/23 14:47:59;;;;;;;21.08;19.38;;;23.50;99.90;;;;;;6199283;23;20012;-92
2022/10/23 14:50:27;;;;;;;20.55;18.67;;;23.50;99.90;;;;;;6197381;23;20083;-92
2022/10/23 14:52:53;;;;;;;20.42;18.75;;;23.40;99.90;;;;;;6197933;23;20004;-93
2022/10/23 14:55:22;;;;;;;20.58;18.85;;;23.40;99.90;;;;;;6197545;23;20457;-93
2022/10/23 14:57:54;;;;;;;21.38;19.20;;;23.20;99.90;;;;;;6197509;23;20036;-92
2022/10/23 15:00:22;;;;;;;21.02;19.17;;;23.10;99.90;;;;;;6197610;23;20008;-93
2022/10/23 15:02:49;;;;;;;20.55;18.88;;;23.00;99.90;;;;;;6197714;23;20008;-91
2022/10/23 15:05:17;;;;;;;22.65;20.42;;;22.90;99.90;;;;;;6197090;23;20031;-92
2022/10/23 15:07:43;;;;;;;21.65;19.73;;;22.90;99.90;;;;;;6223286;23;20502;-94
2022/10/23 15:10:11;;;;;;;21.98;19.33;;;22.80;99.90;;;;;;6199187;23;20381;-93